sensor_id;sensor_type;location;lat;lon;timestamp;P1;durP1;ratioP1;P2;durP2;ratioP2
11743;SDS011;5929;51.906;7.674;2023-12-29T00:01:37;9.27;;;1.70;;
11743;SDS011;5929;51.906;7.674;2023-12-29T00:04:04;5.43;;;1.83;;
11743;SDS011;5929;51.906;7.674;2023-12-29T00:06:32;5.55;;;1.50;;
11743;SDS011;5929;51.906;7.674;2023-12-29T00:08:59;8.32;;;2.00;;
11743;SDS011;5929;51.906;7.674;2023-12-29T00:11:28;8.15;;;1.42;;
11743;SDS011;5929;51.906;7.674;2023-12-29T00:13:55;5.38;;;1.48;;
11743;SDS011;5929;51.906;7.674;2023-12-29T00:16:22;7.82;;;1.67;;
11743;SDS011;5929;51.906;7.674;2023-12-29T00:18:49;6.75;;;1.38;;
11743;SDS011;5929;51.906;7.674;2023-12-29T00:21:16;5.45;;;1.13;;
11743;SDS011;5929;51.906;7.674;2023-12-29T00:23:44;9.80;;;2.45;;
11743;SDS011;5929;51.906;7.674;2023-12-29T00:26:11;7.75;;;1.60;;
11743;SDS011;5929;51.906;7.674;2023-12-29T00:28:38;8.93;;;1.98;;
11743;SDS011;5929;51.906;7.674;2023-12-29T00:31:05;5.75;;;1.40;;
11743;SDS011;5929;51.906;7.674;2023-12-29T00:33:32;9.23;;;1.45;;
11743;SDS011;5929;51.906;7.674;2023-12-29T00:35:59;8.73;;;1.58;;
11743;SDS011;5929;51.906;7.674;2023-12-29T00:38:26;10.07;;;1.85;;
11743;SDS011;5929;51.906;7.674;2023-12-29T00:40:55;7.25;;;1.55;;
11743;SDS011;5929;51.906;7.674;2023-12-29T00:43:21;7.20;;;1.20;;
11743;SDS011;5929;51.906;7.674;2023-12-29T00:45:49;10.23;;;1.75;;
11743;SDS011;5929;51.906;7.674;2023-12-29T00:48:16;11.20;;;1.70;;
11743;SDS011;5929;51.906;7.674;2023-12-29T00:50:43;5.03;;;1.20;;
11743;SDS011;5929;51.906;7.674;2023-12-29T00:53:09;9.05;;;1.67;;
11743;SDS011;5929;51.906;7.674;2023-12-29T00:55:36;5.03;;;1.35;;
11743;SDS011;5929;51.906;7.674;2023-12-29T00:58:05;7.00;;;1.77;;
11743;SDS011;5929;51.906;7.674;2023-12-29T01:00:32;9.30;;;1.38;;
11743;SDS011;5929;51.906;7.674;2023-12-29T01:02:59;10.65;;;2.00;;
11743;SDS011;5929;51.906;7.674;2023-12-29T01:05:26;7.85;;;1.83;;
11743;SDS011;5929;51.906;7.674;2023-12-29T01:07:54;9.38;;;1.58;;
11743;SDS011;5929;51.906;7.674;2023-12-29T01:10:23;8.15;;;1.10;;
11743;SDS011;5929;51.906;7.674;2023-12-29T01:12:50;8.43;;;1.60;;
11743;SDS011;5929;51.906;7.674;2023-12-29T01:15:18;7.72;;;1.55;;
11743;SDS011;5929;51.906;7.674;2023-12-29T01:17:45;4.53;;;1.13;;
11743;SDS011;5929;51.906;7.674;2023-12-29T01:20:12;9.00;;;1.35;;
11743;SDS011;5929;51.906;7.674;2023-12-29T01:22:39;6.47;;;1.48;;
11743;SDS011;5929;51.906;7.674;2023-12-29T01:25:06;9.68;;;1.60;;
11743;SDS011;5929;51.906;7.674;2023-12-29T01:27:33;7.85;;;1.40;;
11743;SDS011;5929;51.906;7.674;2023-12-29T01:30:00;7.65;;;1.33;;
11743;SDS011;5929;51.906;7.674;2023-12-29T01:32:29;7.30;;;1.77;;
11743;SDS011;5929;51.906;7.674;2023-12-29T01:34:55;4.85;;;2.03;;
11743;SDS011;5929;51.906;7.674;2023-12-29T01:37:22;7.93;;;1.20;;
11743;SDS011;5929;51.906;7.674;2023-12-29T01:39:49;7.60;;;1.25;;
11743;SDS011;5929;51.906;7.674;2023-12-29T01:42:16;7.13;;;1.20;;
11743;SDS011;5929;51.906;7.674;2023-12-29T01:44:43;7.30;;;1.65;;
11743;SDS011;5929;51.906;7.674;2023-12-29T01:47:13;6.97;;;1.35;;
11743;SDS011;5929;51.906;7.674;2023-12-29T01:49:42;7.10;;;1.70;;
11743;SDS011;5929;51.906;7.674;2023-12-29T01:52:11;4.40;;;1.10;;
11743;SDS011;5929;51.906;7.674;2023-12-29T01:54:41;6.22;;;1.52;;
11743;SDS011;5929;51.906;7.674;2023-12-29T01:57:10;6.10;;;1.13;;
11743;SDS011;5929;51.906;7.674;2023-12-29T01:59:38;6.00;;;1.50;;
11743;SDS011;5929;51.906;7.674;2023-12-29T02:02:06;5.63;;;1.40;;
11743;SDS011;5929;51.906;7.674;2023-12-29T02:04:33;6.40;;;2.05;;
11743;SDS011;5929;51.906;7.674;2023-12-29T02:07:03;9.40;;;1.48;;
11743;SDS011;5929;51.906;7.674;2023-12-29T02:09:30;9.45;;;2.10;;
11743;SDS011;5929;51.906;7.674;2023-12-29T02:11:59;10.82;;;1.60;;
11743;SDS011;5929;51.906;7.674;2023-12-29T02:14:26;9.05;;;1.60;;
11743;SDS011;5929;51.906;7.674;2023-12-29T02:16:56;8.75;;;1.80;;
11743;SDS011;5929;51.906;7.674;2023-12-29T02:19:36;6.13;;;1.58;;
11743;SDS011;5929;51.906;7.674;2023-12-29T02:22:06;5.90;;;1.67;;
11743;SDS011;5929;51.906;7.674;2023-12-29T02:24:34;9.80;;;1.80;;
11743;SDS011;5929;51.906;7.674;2023-12-29T02:27:20;9.35;;;2.20;;
11743;SDS011;5929;51.906;7.674;2023-12-29T02:29:56;16.48;;;2.10;;
11743;SDS011;5929;51.906;7.674;2023-12-29T02:32:33;11.13;;;1.92;;
11743;SDS011;5929;51.906;7.674;2023-12-29T02:35:02;9.60;;;1.80;;
11743;SDS011;5929;51.906;7.674;2023-12-29T02:37:32;7.18;;;1.95;;
11743;SDS011;5929;51.906;7.674;2023-12-29T02:40:05;11.25;;;2.08;;
11743;SDS011;5929;51.906;7.674;2023-12-29T02:42:34;10.65;;;1.85;;
11743;SDS011;5929;51.906;7.674;2023-12-29T02:45:01;13.77;;;2.40;;
11743;SDS011;5929;51.906;7.674;2023-12-29T02:47:29;9.07;;;2.20;;
11743;SDS011;5929;51.906;7.674;2023-12-29T02:49:56;8.30;;;1.70;;
11743;SDS011;5929;51.906;7.674;2023-12-29T02:52:23;7.43;;;2.10;;
11743;SDS011;5929;51.906;7.674;2023-12-29T02:54:49;11.18;;;1.90;;
11743;SDS011;5929;51.906;7.674;2023-12-29T02:57:16;10.52;;;2.65;;
11743;SDS011;5929;51.906;7.674;2023-12-29T02:59:45;6.30;;;2.17;;
11743;SDS011;5929;51.906;7.674;2023-12-29T03:02:11;6.35;;;2.20;;
11743;SDS011;5929;51.906;7.674;2023-12-29T03:04:38;7.50;;;2.70;;
11743;SDS011;5929;51.906;7.674;2023-12-29T03:07:05;9.75;;;1.90;;
11743;SDS011;5929;51.906;7.674;2023-12-29T03:09:32;6.85;;;2.05;;
11743;SDS011;5929;51.906;7.674;2023-12-29T03:11:59;12.07;;;2.53;;
11743;SDS011;5929;51.906;7.674;2023-12-29T03:14:28;11.40;;;2.25;;
11743;SDS011;5929;51.906;7.674;2023-12-29T03:16:57;11.27;;;2.92;;
11743;SDS011;5929;51.906;7.674;2023-12-29T03:19:26;8.27;;;2.33;;
11743;SDS011;5929;51.906;7.674;2023-12-29T03:21:53;13.85;;;2.75;;
11743;SDS011;5929;51.906;7.674;2023-12-29T03:24:20;11.07;;;2.75;;
11743;SDS011;5929;51.906;7.674;2023-12-29T03:26:47;9.30;;;2.38;;
11743;SDS011;5929;51.906;7.674;2023-12-29T03:29:14;11.90;;;3.05;;
11743;SDS011;5929;51.906;7.674;2023-12-29T03:31:43;9.90;;;2.50;;
11743;SDS011;5929;51.906;7.674;2023-12-29T03:34:14;10.90;;;2.50;;
11743;SDS011;5929;51.906;7.674;2023-12-29T03:36:41;20.40;;;3.53;;
11743;SDS011;5929;51.906;7.674;2023-12-29T03:39:08;11.38;;;3.20;;
11743;SDS011;5929;51.906;7.674;2023-12-29T03:41:35;10.43;;;2.60;;
11743;SDS011;5929;51.906;7.674;2023-12-29T03:44:04;7.70;;;2.70;;
11743;SDS011;5929;51.906;7.674;2023-12-29T03:46:31;11.45;;;3.00;;
11743;SDS011;5929;51.906;7.674;2023-12-29T03:48:58;13.00;;;3.22;;
11743;SDS011;5929;51.906;7.674;2023-12-29T03:51:27;13.32;;;2.95;;
11743;SDS011;5929;51.906;7.674;2023-12-29T03:53:53;13.65;;;3.63;;
11743;SDS011;5929;51.906;7.674;2023-12-29T03:56:20;9.48;;;3.30;;
11743;SDS011;5929;51.906;7.674;2023-12-29T03:58:48;12.38;;;3.80;;
11743;SDS011;5929;51.906;7.674;2023-12-29T04:01:15;14.50;;;3.63;;
11743;SDS011;5929;51.906;7.674;2023-12-29T04:03:43;15.35;;;3.42;;
11743;SDS011;5929;51.906;7.674;2023-12-29T04:06:10;8.27;;;3.65;;
11743;SDS011;5929;51.906;7.674;2023-12-29T04:08:39;16.30;;;3.28;;
11743;SDS011;5929;51.906;7.674;2023-12-29T04:11:05;12.65;;;3.85;;
11743;SDS011;5929;51.906;7.674;2023-12-29T04:13:32;13.10;;;3.40;;
11743;SDS011;5929;51.906;7.674;2023-12-29T04:16:02;10.68;;;3.40;;
11743;SDS011;5929;51.906;7.674;2023-12-29T04:18:29;15.18;;;3.97;;
11743;SDS011;5929;51.906;7.674;2023-12-29T04:20:56;8.77;;;3.72;;
11743;SDS011;5929;51.906;7.674;2023-12-29T04:23:23;14.25;;;3.80;;
11743;SDS011;5929;51.906;7.674;2023-12-29T04:25:52;18.08;;;3.55;;
11743;SDS011;5929;51.906;7.674;2023-12-29T04:28:18;11.23;;;3.63;;
11743;SDS011;5929;51.906;7.674;2023-12-29T04:30:45;10.77;;;3.80;;
11743;SDS011;5929;51.906;7.674;2023-12-29T04:33:12;14.35;;;3.90;;
11743;SDS011;5929;51.906;7.674;2023-12-29T04:35:39;12.65;;;3.90;;
11743;SDS011;5929;51.906;7.674;2023-12-29T04:38:06;12.95;;;3.47;;
11743;SDS011;5929;51.906;7.674;2023-12-29T04:40:33;9.38;;;3.80;;
11743;SDS011;5929;51.906;7.674;2023-12-29T04:43:01;12.40;;;3.60;;
11743;SDS011;5929;51.906;7.674;2023-12-29T04:45:28;9.85;;;3.65;;
11743;SDS011;5929;51.906;7.674;2023-12-29T04:47:55;13.38;;;3.72;;
11743;SDS011;5929;51.906;7.674;2023-12-29T04:50:22;13.30;;;3.53;;
11743;SDS011;5929;51.906;7.674;2023-12-29T04:52:49;11.60;;;3.25;;
11743;SDS011;5929;51.906;7.674;2023-12-29T04:55:16;14.55;;;4.30;;
11743;SDS011;5929;51.906;7.674;2023-12-29T04:57:42;11.07;;;2.95;;
11743;SDS011;5929;51.906;7.674;2023-12-29T05:00:14;11.15;;;2.72;;
11743;SDS011;5929;51.906;7.674;2023-12-29T05:02:41;12.80;;;3.10;;
11743;SDS011;5929;51.906;7.674;2023-12-29T05:05:08;10.82;;;2.85;;
11743;SDS011;5929;51.906;7.674;2023-12-29T05:07:36;9.70;;;2.40;;
11743;SDS011;5929;51.906;7.674;2023-12-29T05:10:03;7.00;;;2.25;;
11743;SDS011;5929;51.906;7.674;2023-12-29T05:12:33;9.73;;;2.45;;
11743;SDS011;5929;51.906;7.674;2023-12-29T05:15:00;7.95;;;2.38;;
11743;SDS011;5929;51.906;7.674;2023-12-29T05:17:29;13.23;;;2.83;;
11743;SDS011;5929;51.906;7.674;2023-12-29T05:19:56;10.35;;;2.30;;
11743;SDS011;5929;51.906;7.674;2023-12-29T05:22:23;10.60;;;2.35;;
11743;SDS011;5929;51.906;7.674;2023-12-29T05:24:52;11.07;;;2.40;;
11743;SDS011;5929;51.906;7.674;2023-12-29T05:27:22;8.13;;;2.00;;
11743;SDS011;5929;51.906;7.674;2023-12-29T05:29:49;7.65;;;2.58;;
11743;SDS011;5929;51.906;7.674;2023-12-29T05:32:16;10.68;;;2.03;;
11743;SDS011;5929;51.906;7.674;2023-12-29T05:34:44;10.60;;;2.20;;
11743;SDS011;5929;51.906;7.674;2023-12-29T05:37:11;10.95;;;2.40;;
11743;SDS011;5929;51.906;7.674;2023-12-29T05:39:41;10.80;;;2.03;;
11743;SDS011;5929;51.906;7.674;2023-12-29T05:42:08;7.88;;;1.80;;
11743;SDS011;5929;51.906;7.674;2023-12-29T05:44:35;13.55;;;1.98;;
11743;SDS011;5929;51.906;7.674;2023-12-29T05:47:02;13.93;;;2.42;;
11743;SDS011;5929;51.906;7.674;2023-12-29T05:49:30;5.68;;;1.45;;
11743;SDS011;5929;51.906;7.674;2023-12-29T05:52:04;9.13;;;1.83;;
11743;SDS011;5929;51.906;7.674;2023-12-29T05:54:31;7.80;;;1.70;;
11743;SDS011;5929;51.906;7.674;2023-12-29T05:57:01;12.60;;;2.38;;
11743;SDS011;5929;51.906;7.674;2023-12-29T05:59:28;10.43;;;1.95;;
11743;SDS011;5929;51.906;7.674;2023-12-29T06:01:55;9.68;;;2.15;;
11743;SDS011;5929;51.906;7.674;2023-12-29T06:04:22;9.02;;;2.10;;
11743;SDS011;5929;51.906;7.674;2023-12-29T06:06:49;10.45;;;1.75;;
11743;SDS011;5929;51.906;7.674;2023-12-29T06:09:18;11.73;;;2.20;;
11743;SDS011;5929;51.906;7.674;2023-12-29T06:11:45;11.63;;;2.17;;
11743;SDS011;5929;51.906;7.674;2023-12-29T06:14:11;7.82;;;1.77;;
11743;SDS011;5929;51.906;7.674;2023-12-29T06:16:40;10.18;;;2.00;;
11743;SDS011;5929;51.906;7.674;2023-12-29T06:19:07;10.20;;;2.28;;
11743;SDS011;5929;51.906;7.674;2023-12-29T06:21:35;8.77;;;1.95;;
11743;SDS011;5929;51.906;7.674;2023-12-29T06:24:07;9.90;;;1.90;;
11743;SDS011;5929;51.906;7.674;2023-12-29T06:26:36;10.20;;;1.88;;
11743;SDS011;5929;51.906;7.674;2023-12-29T06:29:06;10.95;;;2.00;;
11743;SDS011;5929;51.906;7.674;2023-12-29T06:31:34;7.32;;;1.50;;
11743;SDS011;5929;51.906;7.674;2023-12-29T06:34:01;6.93;;;1.60;;
11743;SDS011;5929;51.906;7.674;2023-12-29T06:36:28;7.40;;;1.70;;
11743;SDS011;5929;51.906;7.674;2023-12-29T06:38:55;11.90;;;1.95;;
11743;SDS011;5929;51.906;7.674;2023-12-29T06:41:22;9.88;;;1.50;;
11743;SDS011;5929;51.906;7.674;2023-12-29T06:43:51;14.73;;;2.65;;
11743;SDS011;5929;51.906;7.674;2023-12-29T06:46:18;8.65;;;1.85;;
11743;SDS011;5929;51.906;7.674;2023-12-29T06:48:45;9.20;;;1.90;;
11743;SDS011;5929;51.906;7.674;2023-12-29T06:51:15;8.73;;;2.30;;
11743;SDS011;5929;51.906;7.674;2023-12-29T06:53:43;12.68;;;1.73;;
11743;SDS011;5929;51.906;7.674;2023-12-29T06:56:12;10.82;;;2.30;;
11743;SDS011;5929;51.906;7.674;2023-12-29T07:01:08;12.13;;;2.33;;
11743;SDS011;5929;51.906;7.674;2023-12-29T07:03:35;8.25;;;1.77;;
11743;SDS011;5929;51.906;7.674;2023-12-29T07:06:02;13.45;;;2.00;;
11743;SDS011;5929;51.906;7.674;2023-12-29T07:08:30;8.35;;;1.60;;
11743;SDS011;5929;51.906;7.674;2023-12-29T07:10:57;12.02;;;1.65;;
11743;SDS011;5929;51.906;7.674;2023-12-29T07:13:25;14.60;;;1.83;;
11743;SDS011;5929;51.906;7.674;2023-12-29T07:15:52;9.73;;;1.42;;
11743;SDS011;5929;51.906;7.674;2023-12-29T07:18:20;10.38;;;2.15;;
11743;SDS011;5929;51.906;7.674;2023-12-29T07:20:47;9.32;;;1.95;;
11743;SDS011;5929;51.906;7.674;2023-12-29T07:23:14;8.98;;;1.75;;
11743;SDS011;5929;51.906;7.674;2023-12-29T07:25:43;9.65;;;2.13;;
11743;SDS011;5929;51.906;7.674;2023-12-29T07:28:10;9.32;;;1.80;;
11743;SDS011;5929;51.906;7.674;2023-12-29T07:30:37;8.43;;;1.75;;
11743;SDS011;5929;51.906;7.674;2023-12-29T07:33:04;11.15;;;1.83;;
11743;SDS011;5929;51.906;7.674;2023-12-29T07:35:33;7.07;;;2.13;;
11743;SDS011;5929;51.906;7.674;2023-12-29T07:38:00;7.53;;;2.00;;
11743;SDS011;5929;51.906;7.674;2023-12-29T07:40:27;7.07;;;1.58;;
11743;SDS011;5929;51.906;7.674;2023-12-29T07:42:54;12.20;;;2.20;;
11743;SDS011;5929;51.906;7.674;2023-12-29T07:45:21;9.25;;;1.90;;
11743;SDS011;5929;51.906;7.674;2023-12-29T07:47:48;9.90;;;2.05;;
11743;SDS011;5929;51.906;7.674;2023-12-29T07:50:15;9.93;;;2.22;;
11743;SDS011;5929;51.906;7.674;2023-12-29T07:52:43;5.97;;;1.52;;
11743;SDS011;5929;51.906;7.674;2023-12-29T07:55:10;6.97;;;1.80;;
11743;SDS011;5929;51.906;7.674;2023-12-29T07:57:37;8.55;;;1.80;;
11743;SDS011;5929;51.906;7.674;2023-12-29T08:00:05;8.80;;;2.28;;
11743;SDS011;5929;51.906;7.674;2023-12-29T08:02:33;9.93;;;2.70;;
11743;SDS011;5929;51.906;7.674;2023-12-29T08:04:59;8.88;;;2.00;;
11743;SDS011;5929;51.906;7.674;2023-12-29T08:07:25;8.93;;;1.80;;
11743;SDS011;5929;51.906;7.674;2023-12-29T08:09:54;10.60;;;1.80;;
11743;SDS011;5929;51.906;7.674;2023-12-29T08:12:21;7.75;;;1.75;;
11743;SDS011;5929;51.906;7.674;2023-12-29T08:14:47;9.43;;;2.08;;
11743;SDS011;5929;51.906;7.674;2023-12-29T08:17:14;6.03;;;1.90;;
11743;SDS011;5929;51.906;7.674;2023-12-29T08:19:41;11.20;;;2.85;;
11743;SDS011;5929;51.906;7.674;2023-12-29T08:22:08;8.02;;;2.05;;
11743;SDS011;5929;51.906;7.674;2023-12-29T08:24:35;10.50;;;2.80;;
11743;SDS011;5929;51.906;7.674;2023-12-29T08:27:03;15.02;;;2.63;;
11743;SDS011;5929;51.906;7.674;2023-12-29T08:29:30;14.40;;;2.20;;
11743;SDS011;5929;51.906;7.674;2023-12-29T08:31:58;8.52;;;2.60;;
11743;SDS011;5929;51.906;7.674;2023-12-29T08:34:27;7.20;;;2.53;;
11743;SDS011;5929;51.906;7.674;2023-12-29T08:36:53;9.82;;;2.72;;
11743;SDS011;5929;51.906;7.674;2023-12-29T08:39:21;11.15;;;2.60;;
11743;SDS011;5929;51.906;7.674;2023-12-29T08:41:48;14.73;;;2.90;;
11743;SDS011;5929;51.906;7.674;2023-12-29T08:44:17;10.60;;;3.28;;
11743;SDS011;5929;51.906;7.674;2023-12-29T08:46:44;13.43;;;3.15;;
11743;SDS011;5929;51.906;7.674;2023-12-29T08:49:11;10.52;;;3.17;;
11743;SDS011;5929;51.906;7.674;2023-12-29T08:51:38;16.73;;;2.95;;
11743;SDS011;5929;51.906;7.674;2023-12-29T08:54:05;10.20;;;2.85;;
11743;SDS011;5929;51.906;7.674;2023-12-29T08:56:32;11.32;;;2.65;;
11743;SDS011;5929;51.906;7.674;2023-12-29T08:58:59;15.80;;;3.03;;
11743;SDS011;5929;51.906;7.674;2023-12-29T09:01:27;10.02;;;3.78;;
11743;SDS011;5929;51.906;7.674;2023-12-29T09:03:54;8.43;;;2.50;;
11743;SDS011;5929;51.906;7.674;2023-12-29T09:06:21;14.60;;;3.60;;
11743;SDS011;5929;51.906;7.674;2023-12-29T09:08:48;7.78;;;2.95;;
11743;SDS011;5929;51.906;7.674;2023-12-29T09:11:15;11.50;;;2.65;;
11743;SDS011;5929;51.906;7.674;2023-12-29T09:13:42;14.38;;;3.30;;
11743;SDS011;5929;51.906;7.674;2023-12-29T09:16:09;11.07;;;3.28;;
11743;SDS011;5929;51.906;7.674;2023-12-29T09:18:37;13.75;;;2.95;;
11743;SDS011;5929;51.906;7.674;2023-12-29T09:21:04;12.90;;;3.00;;
11743;SDS011;5929;51.906;7.674;2023-12-29T09:23:31;9.88;;;2.80;;
11743;SDS011;5929;51.906;7.674;2023-12-29T09:25:59;9.63;;;3.00;;
11743;SDS011;5929;51.906;7.674;2023-12-29T09:28:25;19.35;;;3.40;;
11743;SDS011;5929;51.906;7.674;2023-12-29T09:30:52;8.75;;;2.40;;
11743;SDS011;5929;51.906;7.674;2023-12-29T09:33:19;14.73;;;3.15;;
11743;SDS011;5929;51.906;7.674;2023-12-29T09:35:49;10.95;;;2.70;;
11743;SDS011;5929;51.906;7.674;2023-12-29T09:38:16;11.48;;;2.95;;
11743;SDS011;5929;51.906;7.674;2023-12-29T09:40:43;11.63;;;2.80;;
11743;SDS011;5929;51.906;7.674;2023-12-29T09:43:10;12.45;;;2.63;;
11743;SDS011;5929;51.906;7.674;2023-12-29T09:45:38;7.88;;;3.10;;
11743;SDS011;5929;51.906;7.674;2023-12-29T09:48:08;7.32;;;2.42;;
11743;SDS011;5929;51.906;7.674;2023-12-29T09:50:37;9.63;;;3.70;;
11743;SDS011;5929;51.906;7.674;2023-12-29T09:53:06;8.95;;;3.38;;
11743;SDS011;5929;51.906;7.674;2023-12-29T09:55:35;9.60;;;3.50;;
11743;SDS011;5929;51.906;7.674;2023-12-29T09:58:02;9.18;;;2.95;;
11743;SDS011;5929;51.906;7.674;2023-12-29T10:00:30;10.07;;;3.10;;
11743;SDS011;5929;51.906;7.674;2023-12-29T10:02:57;7.43;;;3.33;;
11743;SDS011;5929;51.906;7.674;2023-12-29T10:05:25;8.02;;;3.50;;
11743;SDS011;5929;51.906;7.674;2023-12-29T10:07:52;12.68;;;3.83;;
11743;SDS011;5929;51.906;7.674;2023-12-29T10:10:21;11.60;;;3.63;;
11743;SDS011;5929;51.906;7.674;2023-12-29T10:12:49;9.18;;;3.53;;
11743;SDS011;5929;51.906;7.674;2023-12-29T10:15:19;7.95;;;3.50;;
11743;SDS011;5929;51.906;7.674;2023-12-29T10:17:51;8.05;;;3.25;;
11743;SDS011;5929;51.906;7.674;2023-12-29T10:20:33;10.27;;;3.25;;
11743;SDS011;5929;51.906;7.674;2023-12-29T10:23:10;11.07;;;3.20;;
11743;SDS011;5929;51.906;7.674;2023-12-29T10:25:40;8.25;;;2.92;;
11743;SDS011;5929;51.906;7.674;2023-12-29T10:28:07;9.32;;;2.60;;
11743;SDS011;5929;51.906;7.674;2023-12-29T10:30:38;6.32;;;2.20;;
11743;SDS011;5929;51.906;7.674;2023-12-29T10:33:05;7.63;;;2.45;;
11743;SDS011;5929;51.906;7.674;2023-12-29T10:35:32;8.55;;;2.53;;
11743;SDS011;5929;51.906;7.674;2023-12-29T10:38:08;4.63;;;1.98;;
11743;SDS011;5929;51.906;7.674;2023-12-29T10:40:36;5.07;;;2.25;;
11743;SDS011;5929;51.906;7.674;2023-12-29T10:43:05;4.85;;;1.67;;
11743;SDS011;5929;51.906;7.674;2023-12-29T10:45:33;5.50;;;1.77;;
11743;SDS011;5929;51.906;7.674;2023-12-29T10:48:01;5.18;;;1.60;;
11743;SDS011;5929;51.906;7.674;2023-12-29T10:50:28;4.22;;;1.40;;
11743;SDS011;5929;51.906;7.674;2023-12-29T10:53:10;2.78;;;1.15;;
11743;SDS011;5929;51.906;7.674;2023-12-29T10:55:38;6.53;;;1.60;;
11743;SDS011;5929;51.906;7.674;2023-12-29T10:58:06;5.38;;;1.13;;
11743;SDS011;5929;51.906;7.674;2023-12-29T11:00:33;3.15;;;1.10;;
11743;SDS011;5929;51.906;7.674;2023-12-29T11:03:00;3.97;;;0.90;;
11743;SDS011;5929;51.906;7.674;2023-12-29T11:05:27;3.03;;;0.90;;
11743;SDS011;5929;51.906;7.674;2023-12-29T11:07:55;4.30;;;1.30;;
11743;SDS011;5929;51.906;7.674;2023-12-29T11:10:24;5.95;;;1.10;;
11743;SDS011;5929;51.906;7.674;2023-12-29T11:12:52;3.00;;;1.10;;
11743;SDS011;5929;51.906;7.674;2023-12-29T11:15:21;5.07;;;1.17;;
11743;SDS011;5929;51.906;7.674;2023-12-29T11:17:51;4.43;;;1.40;;
11743;SDS011;5929;51.906;7.674;2023-12-29T11:20:22;4.07;;;1.42;;
11743;SDS011;5929;51.906;7.674;2023-12-29T11:22:51;3.53;;;1.10;;
11743;SDS011;5929;51.906;7.674;2023-12-29T11:25:19;3.30;;;1.00;;
11743;SDS011;5929;51.906;7.674;2023-12-29T11:27:46;4.47;;;2.30;;
11743;SDS011;5929;51.906;7.674;2023-12-29T11:30:15;4.00;;;1.00;;
11743;SDS011;5929;51.906;7.674;2023-12-29T11:32:45;4.85;;;1.20;;
11743;SDS011;5929;51.906;7.674;2023-12-29T11:35:18;2.60;;;1.00;;
11743;SDS011;5929;51.906;7.674;2023-12-29T11:38:03;4.18;;;1.35;;
11743;SDS011;5929;51.906;7.674;2023-12-29T11:40:45;5.90;;;1.63;;
11743;SDS011;5929;51.906;7.674;2023-12-29T11:43:16;2.70;;;0.90;;
11743;SDS011;5929;51.906;7.674;2023-12-29T11:45:44;3.35;;;1.17;;
11743;SDS011;5929;51.906;7.674;2023-12-29T11:48:12;3.28;;;1.20;;
11743;SDS011;5929;51.906;7.674;2023-12-29T11:50:59;4.80;;;1.08;;
11743;SDS011;5929;51.906;7.674;2023-12-29T11:53:31;3.10;;;1.13;;
11743;SDS011;5929;51.906;7.674;2023-12-29T11:55:58;3.05;;;0.90;;
11743;SDS011;5929;51.906;7.674;2023-12-29T11:58:26;2.83;;;0.88;;
11743;SDS011;5929;51.906;7.674;2023-12-29T12:00:53;4.15;;;0.82;;
11743;SDS011;5929;51.906;7.674;2023-12-29T12:03:25;2.65;;;0.80;;
11743;SDS011;5929;51.906;7.674;2023-12-29T12:05:53;4.07;;;1.00;;
11743;SDS011;5929;51.906;7.674;2023-12-29T12:08:32;2.85;;;0.88;;
11743;SDS011;5929;51.906;7.674;2023-12-29T12:14:10;1.88;;;0.45;;
11743;SDS011;5929;51.906;7.674;2023-12-29T12:16:47;1.67;;;0.65;;
11743;SDS011;5929;51.906;7.674;2023-12-29T12:19:17;2.13;;;0.70;;
11743;SDS011;5929;51.906;7.674;2023-12-29T12:21:46;2.47;;;0.60;;
11743;SDS011;5929;51.906;7.674;2023-12-29T12:24:14;1.13;;;0.40;;
11743;SDS011;5929;51.906;7.674;2023-12-29T12:26:44;2.20;;;0.60;;
11743;SDS011;5929;51.906;7.674;2023-12-29T12:29:13;2.13;;;0.70;;
11743;SDS011;5929;51.906;7.674;2023-12-29T12:31:53;2.35;;;0.70;;
11743;SDS011;5929;51.906;7.674;2023-12-29T12:34:22;4.13;;;0.80;;
11743;SDS011;5929;51.906;7.674;2023-12-29T12:36:50;6.90;;;0.80;;
11743;SDS011;5929;51.906;7.674;2023-12-29T12:39:18;3.92;;;0.60;;
11743;SDS011;5929;51.906;7.674;2023-12-29T12:41:45;3.97;;;0.80;;
11743;SDS011;5929;51.906;7.674;2023-12-29T12:44:15;2.55;;;0.65;;
11743;SDS011;5929;51.906;7.674;2023-12-29T12:46:44;3.58;;;0.80;;
11743;SDS011;5929;51.906;7.674;2023-12-29T12:49:17;3.28;;;0.80;;
11743;SDS011;5929;51.906;7.674;2023-12-29T12:51:45;4.30;;;0.93;;
11743;SDS011;5929;51.906;7.674;2023-12-29T12:54:12;2.45;;;0.80;;
11743;SDS011;5929;51.906;7.674;2023-12-29T12:56:43;3.92;;;0.75;;
11743;SDS011;5929;51.906;7.674;2023-12-29T12:59:10;5.43;;;1.10;;
11743;SDS011;5929;51.906;7.674;2023-12-29T13:01:38;3.47;;;0.70;;
11743;SDS011;5929;51.906;7.674;2023-12-29T13:04:05;2.75;;;0.65;;
11743;SDS011;5929;51.906;7.674;2023-12-29T13:06:33;3.88;;;0.80;;
11743;SDS011;5929;51.906;7.674;2023-12-29T13:09:06;4.95;;;1.10;;
11743;SDS011;5929;51.906;7.674;2023-12-29T13:11:36;4.65;;;1.08;;
11743;SDS011;5929;51.906;7.674;2023-12-29T13:14:04;3.40;;;0.85;;
11743;SDS011;5929;51.906;7.674;2023-12-29T13:16:30;4.80;;;0.73;;
11743;SDS011;5929;51.906;7.674;2023-12-29T13:21:47;4.32;;;1.10;;
11743;SDS011;5929;51.906;7.674;2023-12-29T13:24:16;5.28;;;1.10;;
11743;SDS011;5929;51.906;7.674;2023-12-29T13:26:43;4.13;;;1.20;;
11743;SDS011;5929;51.906;7.674;2023-12-29T13:29:13;5.80;;;1.20;;
11743;SDS011;5929;51.906;7.674;2023-12-29T13:31:41;4.43;;;1.10;;
11743;SDS011;5929;51.906;7.674;2023-12-29T13:34:11;4.95;;;1.08;;
11743;SDS011;5929;51.906;7.674;2023-12-29T13:36:47;4.68;;;1.10;;
11743;SDS011;5929;51.906;7.674;2023-12-29T13:39:21;5.28;;;1.10;;
11743;SDS011;5929;51.906;7.674;2023-12-29T13:41:52;5.10;;;0.95;;
11743;SDS011;5929;51.906;7.674;2023-12-29T13:44:20;6.72;;;0.98;;
11743;SDS011;5929;51.906;7.674;2023-12-29T13:46:48;5.57;;;1.10;;
11743;SDS011;5929;51.906;7.674;2023-12-29T13:49:18;3.80;;;1.00;;
11743;SDS011;5929;51.906;7.674;2023-12-29T13:51:45;4.35;;;0.90;;
11743;SDS011;5929;51.906;7.674;2023-12-29T13:54:12;4.25;;;1.20;;
11743;SDS011;5929;51.906;7.674;2023-12-29T13:56:42;5.82;;;1.30;;
11743;SDS011;5929;51.906;7.674;2023-12-29T13:59:18;4.07;;;0.90;;
11743;SDS011;5929;51.906;7.674;2023-12-29T14:01:45;4.70;;;1.10;;
11743;SDS011;5929;51.906;7.674;2023-12-29T14:04:12;3.50;;;0.77;;
11743;SDS011;5929;51.906;7.674;2023-12-29T14:06:49;4.30;;;0.80;;
11743;SDS011;5929;51.906;7.674;2023-12-29T14:09:20;2.47;;;0.70;;
11743;SDS011;5929;51.906;7.674;2023-12-29T14:11:49;2.85;;;0.75;;
11743;SDS011;5929;51.906;7.674;2023-12-29T14:14:21;2.75;;;0.57;;
11743;SDS011;5929;51.906;7.674;2023-12-29T14:16:48;3.83;;;0.88;;
11743;SDS011;5929;51.906;7.674;2023-12-29T14:19:15;3.25;;;0.80;;
11743;SDS011;5929;51.906;7.674;2023-12-29T14:21:42;3.05;;;1.15;;
11743;SDS011;5929;51.906;7.674;2023-12-29T14:24:11;3.88;;;0.68;;
11743;SDS011;5929;51.906;7.674;2023-12-29T14:26:40;4.15;;;0.75;;
11743;SDS011;5929;51.906;7.674;2023-12-29T14:29:13;4.18;;;0.82;;
11743;SDS011;5929;51.906;7.674;2023-12-29T14:31:40;5.00;;;0.95;;
11743;SDS011;5929;51.906;7.674;2023-12-29T14:34:08;4.88;;;0.80;;
11743;SDS011;5929;51.906;7.674;2023-12-29T14:36:36;2.97;;;0.70;;
11743;SDS011;5929;51.906;7.674;2023-12-29T14:39:04;4.97;;;1.08;;
11743;SDS011;5929;51.906;7.674;2023-12-29T14:41:31;3.72;;;0.90;;
11743;SDS011;5929;51.906;7.674;2023-12-29T14:43:58;3.83;;;1.10;;
11743;SDS011;5929;51.906;7.674;2023-12-29T14:46:27;4.53;;;1.05;;
11743;SDS011;5929;51.906;7.674;2023-12-29T14:48:56;4.93;;;0.80;;
11743;SDS011;5929;51.906;7.674;2023-12-29T14:51:23;5.13;;;2.10;;
11743;SDS011;5929;51.906;7.674;2023-12-29T14:53:50;5.47;;;1.08;;
11743;SDS011;5929;51.906;7.674;2023-12-29T14:56:17;3.85;;;0.98;;
11743;SDS011;5929;51.906;7.674;2023-12-29T14:58:44;3.60;;;0.80;;
11743;SDS011;5929;51.906;7.674;2023-12-29T15:01:11;2.55;;;0.85;;
11743;SDS011;5929;51.906;7.674;2023-12-29T15:03:40;6.10;;;1.23;;
11743;SDS011;5929;51.906;7.674;2023-12-29T15:06:07;3.08;;;0.95;;
11743;SDS011;5929;51.906;7.674;2023-12-29T15:08:34;5.75;;;1.33;;
11743;SDS011;5929;51.906;7.674;2023-12-29T15:11:02;4.25;;;0.73;;
11743;SDS011;5929;51.906;7.674;2023-12-29T15:13:29;3.22;;;1.20;;